KFFO/FFO METAR and TAF weather

Enter ICAO airport designator
Station Type Date Time Source
KFFO METAR 2021/03/03 20:56 UTC NOAA

KFFO 032056Z COR 27013G19KT 10SM CLR 17/M02 A2993 RMK AO2A SLP142 T01671024 56015 COR 2111


Station Type Date Time Source
KFFO Decoded METAR 2021/03/03 20:56 UTC NOAA

Dayton / Wright-Patterson Air Force Base, OH, United States (KFFO) 39-50N 084-03W 251M
Mar 03, 2021 - 03:56 PM EST / 2021.03.03 2056 UTC
Wind: from the W (270 degrees) at 15 MPH (13 KT) gusting to 22 MPH (19 KT):0
Visibility: 10 mile(s):0
Sky conditions: clear
Temperature: 62.1 F (16.7 C)
Dew Point: 27.7 F (-2.4 C)
Relative Humidity: 26%
Pressure (altimeter): 29.93 in. Hg (1013 hPa)
Pressure tendency: 0.04 inches (1.5 hPa) lower than three hours ago
ob: KFFO 032056Z COR 27013G19KT 10SM CLR 17/M02 A2993 RMK AO2A SLP142 T01671024 56015 COR 2111
cycle: 21

Station Type Date Time Source
KFFO TAF 2021/03/03 20:59 UTC NOAA

TAF
AMD KFFO 032054Z 0320/0501 27012G18KT 9999 SKC QNH2991INS
BECMG 0322/0323 26012KT 9999 SKC QNH2990INS
BECMG 0400/0401 VRB06KT 9999 SCT025 510102 QNH2991INS
BECMG 0405/0406 VRB06KT 9999 SCT015 510102 QNH3005INS
BECMG 0415/0416 34009KT 9999 FEW025 QNH3018INS TX17/0321Z TN00/0411Z

Example: see airport list